Time;durP1;ratioP1;P1;durP2;ratioP2;P2;SDS_P1;SDS_P2;PMS_P1;PMS_P2;Temp;Humidity;BMP_temperature;BMP_pressure;BME280_temperature;BME280_humidity;BME280_pressure;Samples;Min_cycle;Max_cycle;Signal;HPM_P1;HPM_P2
2022/07/07 00:01:34;;;;;;;6.00;4.45;;;27.90;99.90;;;;;;5011033;28;20042;-44
2022/07/07 00:04:02;;;;;;;6.22;4.65;;;27.90;99.90;;;;;;5011409;28;20363;-44
2022/07/07 00:06:28;;;;;;;7.15;4.72;;;27.90;99.90;;;;;;5011049;28;20084;-44
2022/07/07 00:08:54;;;;;;;5.27;3.90;;;27.90;99.90;;;;;;5011228;28;20510;-44
2022/07/07 00:11:24;;;;;;;6.40;5.07;;;27.90;99.90;;;;;;5011191;28;20105;-44
2022/07/07 00:13:51;;;;;;;5.55;4.20;;;27.90;99.90;;;;;;5011357;28;20101;-45
2022/07/07 00:16:17;;;;;;;5.38;4.18;;;28.00;99.90;;;;;;5011110;28;20415;-45
2022/07/07 00:18:43;;;;;;;7.65;5.32;;;27.90;99.90;;;;;;4993680;28;20030;-45
2022/07/07 00:21:09;;;;;;;6.47;5.07;;;27.90;99.90;;;;;;5011065;28;20041;-44
2022/07/07 00:23:35;;;;;;;5.70;4.22;;;27.90;99.90;;;;;;5011062;28;20113;-45
2022/07/07 00:26:01;;;;;;;6.38;5.22;;;27.90;99.90;;;;;;5010857;28;20116;-44
2022/07/07 00:28:26;;;;;;;7.88;4.85;;;27.90;99.90;;;;;;5010868;28;20037;-45
2022/07/07 00:30:52;;;;;;;6.35;4.35;;;27.90;99.90;;;;;;5011063;28;20515;-45
2022/07/07 00:33:18;;;;;;;7.35;5.18;;;27.90;99.90;;;;;;5014144;28;20042;-45
2022/07/07 00:35:44;;;;;;;5.72;4.47;;;27.90;99.90;;;;;;5014658;28;20034;-46
2022/07/07 00:38:09;;;;;;;5.97;4.97;;;27.90;99.90;;;;;;5014681;28;20018;-44
2022/07/07 00:40:35;;;;;;;6.50;4.47;;;27.90;99.90;;;;;;4997310;28;20025;-44
2022/07/07 00:43:01;;;;;;;6.93;5.40;;;27.90;99.90;;;;;;5014636;28;20054;-44
2022/07/07 00:45:27;;;;;;;7.30;4.90;;;27.90;99.90;;;;;;5014417;28;20105;-44
2022/07/07 00:47:54;;;;;;;6.28;4.82;;;27.90;99.90;;;;;;5014670;28;20053;-45
2022/07/07 00:50:20;;;;;;;6.00;4.70;;;27.90;99.90;;;;;;5014741;28;20360;-45
2022/07/07 00:52:46;;;;;;;6.38;4.40;;;27.90;99.90;;;;;;5014336;28;20026;-45
2022/07/07 00:55:12;;;;;;;7.13;5.50;;;27.90;99.90;;;;;;5014243;28;20018;-44
2022/07/07 00:57:38;;;;;;;6.35;4.97;;;27.90;99.90;;;;;;5014335;28;20092;-44
2022/07/07 01:00:15;;;;;;;6.50;4.65;;;27.90;99.90;;;;;;5046239;23;20050;-45
2022/07/07 01:02:44;;;;;;;5.43;4.27;;;27.90;99.90;;;;;;5014114;28;20068;-45
2022/07/07 01:05:10;;;;;;;6.05;4.63;;;27.80;99.90;;;;;;5014216;28;20335;-45
2022/07/07 01:07:37;;;;;;;5.63;4.30;;;27.90;99.90;;;;;;5014054;28;20096;-45
2022/07/07 01:10:05;;;;;;;7.18;4.60;;;27.90;99.90;;;;;;5013998;28;20030;-45
2022/07/07 01:12:36;;;;;;;8.43;4.88;;;27.90;99.90;;;;;;5014006;28;20064;-45
2022/07/07 01:15:05;;;;;;;5.75;4.53;;;27.90;99.90;;;;;;5013940;28;20390;-45
2022/07/07 01:17:30;;;;;;;4.88;4.35;;;27.90;99.90;;;;;;5013786;28;20102;-45
2022/07/07 01:19:57;;;;;;;5.18;4.18;;;27.90;99.90;;;;;;5014067;28;20493;-45
2022/07/07 01:22:27;;;;;;;5.45;4.28;;;27.90;99.90;;;;;;5014251;28;20018;-45
2022/07/07 01:24:53;;;;;;;5.30;4.70;;;27.80;99.90;;;;;;4996428;28;20475;-45
2022/07/07 01:27:21;;;;;;;7.78;4.88;;;27.90;99.90;;;;;;5013750;28;20057;-45
2022/07/07 01:29:52;;;;;;;6.45;4.50;;;27.90;99.90;;;;;;4996274;28;20029;-45
2022/07/07 01:32:18;;;;;;;4.82;4.13;;;27.90;99.90;;;;;;5013556;28;20030;-45
2022/07/07 01:34:46;;;;;;;5.28;4.22;;;27.80;99.90;;;;;;4996135;28;20106;-45
2022/07/07 01:37:12;;;;;;;;;;;27.90;99.90;;;;;;5014233;28;20057;-45
2022/07/07 01:39:39;;;;;;;6.45;4.75;;;27.90;99.90;;;;;;5013595;28;20351;-45
2022/07/07 01:42:06;;;;;;;6.07;4.45;;;27.90;99.90;;;;;;5013248;28;20364;-45
2022/07/07 01:44:33;;;;;;;5.13;4.35;;;27.80;99.90;;;;;;5013293;28;20076;-45
2022/07/07 01:46:59;;;;;;;8.73;4.60;;;27.80;99.90;;;;;;5013319;28;20391;-45
2022/07/07 01:49:27;;;;;;;5.10;4.03;;;27.80;99.90;;;;;;5013425;28;20032;-45
2022/07/07 01:51:53;;;;;;;5.50;4.50;;;27.80;99.90;;;;;;5013596;28;20386;-45
2022/07/07 01:54:19;;;;;;;5.28;3.90;;;27.80;99.90;;;;;;5013297;28;20026;-45
2022/07/07 01:56:45;;;;;;;5.60;4.57;;;27.80;99.90;;;;;;5013264;28;20022;-45
2022/07/07 01:59:12;;;;;;;6.38;4.07;;;27.80;99.90;;;;;;5013822;28;20375;-45
2022/07/07 02:01:38;;;;;;;4.88;3.92;;;27.80;99.90;;;;;;5012727;28;20050;-45
2022/07/07 02:04:04;;;;;;;6.30;4.20;;;27.80;99.90;;;;;;5013052;28;20038;-45
2022/07/07 02:06:31;;;;;;;6.13;4.75;;;27.80;99.90;;;;;;5011793;28;20450;-45
2022/07/07 02:08:57;;;;;;;5.10;4.13;;;27.90;99.90;;;;;;5013225;28;20030;-45
2022/07/07 02:11:22;;;;;;;4.93;3.80;;;27.80;99.90;;;;;;5012939;28;20022;-45
2022/07/07 02:13:50;;;;;;;4.47;3.70;;;27.80;99.90;;;;;;5013125;28;20029;-45
2022/07/07 02:16:19;;;;;;;5.97;3.53;;;27.80;99.90;;;;;;5012885;28;20018;-45
2022/07/07 02:18:46;;;;;;;6.40;4.03;;;27.80;99.90;;;;;;5012918;28;20061;-45
2022/07/07 02:21:13;;;;;;;3.97;3.55;;;27.80;99.90;;;;;;5012910;28;20034;-45
2022/07/07 02:23:40;;;;;;;;;;;27.80;99.90;;;;;;5013284;28;20364;-45
2022/07/07 02:26:06;;;;;;;5.00;3.38;;;27.80;99.90;;;;;;5012750;28;19932;-45
2022/07/07 02:28:32;;;;;;;5.05;3.90;;;27.80;99.90;;;;;;5012720;28;20042;-44
2022/07/07 02:30:59;;;;;;;3.92;3.50;;;27.80;99.90;;;;;;5012835;28;20029;-45
2022/07/07 02:33:25;;;;;;;5.30;3.72;;;27.80;99.90;;;;;;5012662;28;20025;-45
2022/07/07 02:35:52;;;;;;;5.07;3.42;;;27.80;99.90;;;;;;5012429;28;20087;-45
2022/07/07 02:38:18;;;;;;;5.95;3.63;;;27.80;99.90;;;;;;5012450;28;20040;-45
2022/07/07 02:40:44;;;;;;;6.03;3.30;;;27.80;99.90;;;;;;5012509;28;20069;-45
2022/07/07 02:43:13;;;;;;;6.38;3.72;;;27.80;99.90;;;;;;5012409;28;20033;-45
2022/07/07 02:45:40;;;;;;;4.90;3.10;;;27.80;99.90;;;;;;5012339;28;20022;-45
2022/07/07 02:48:10;;;;;;;6.10;3.43;;;27.80;99.90;;;;;;5012366;28;20034;-45
2022/07/07 02:50:37;;;;;;;5.32;3.90;;;27.80;99.90;;;;;;5012386;28;20026;-45
2022/07/07 02:53:04;;;;;;;3.67;3.17;;;27.80;99.90;;;;;;5012329;28;20037;-45
2022/07/07 02:55:31;;;;;;;4.20;3.55;;;27.80;99.90;;;;;;5011843;28;20025;-45
2022/07/07 02:57:57;;;;;;;;;;;27.80;99.90;;;;;;5012792;28;20053;-45
2022/07/07 03:00:23;;;;;;;5.20;3.90;;;27.80;99.90;;;;;;5012786;28;20465;-45
2022/07/07 03:02:49;;;;;;;5.55;3.70;;;27.80;99.90;;;;;;5012163;28;20415;-45
2022/07/07 03:05:15;;;;;;;3.88;3.47;;;27.80;99.90;;;;;;5012041;28;20026;-45
2022/07/07 03:07:41;;;;;;;3.33;3.00;;;27.80;99.90;;;;;;5011820;28;20088;-45
2022/07/07 03:10:07;;;;;;;4.03;2.97;;;27.80;99.90;;;;;;4994498;28;20065;-45
2022/07/07 03:12:33;;;;;;;5.13;3.53;;;27.80;99.90;;;;;;5011884;28;20026;-45
2022/07/07 03:15:00;;;;;;;5.75;3.55;;;27.80;99.90;;;;;;5011925;28;20048;-45
2022/07/07 03:17:25;;;;;;;4.40;3.45;;;27.80;99.90;;;;;;5011966;28;20468;-45
2022/07/07 03:19:51;;;;;;;4.57;3.35;;;27.80;99.90;;;;;;5011863;28;20057;-45
2022/07/07 03:22:17;;;;;;;3.20;2.78;;;27.80;99.90;;;;;;5011828;28;20076;-45
2022/07/07 03:24:43;;;;;;;4.72;3.40;;;27.80;99.90;;;;;;5011767;28;20029;-45
2022/07/07 03:27:08;;;;;;;4.05;2.90;;;27.80;99.90;;;;;;5011664;28;20036;-45
2022/07/07 03:29:34;;;;;;;4.25;2.55;;;27.80;99.90;;;;;;5011709;28;20041;-45
2022/07/07 03:32:00;;;;;;;3.90;3.10;;;27.80;99.90;;;;;;5011853;28;20061;-45
2022/07/07 03:34:26;;;;;;;3.92;3.00;;;27.80;99.90;;;;;;5011488;28;20454;-46
2022/07/07 03:36:52;;;;;;;4.95;2.97;;;27.80;99.90;;;;;;5011603;28;20424;-45
2022/07/07 03:39:18;;;;;;;3.05;2.75;;;27.80;99.90;;;;;;5011502;28;20490;-45
2022/07/07 03:41:44;;;;;;;4.00;2.92;;;27.80;99.90;;;;;;5011604;28;20034;-45
2022/07/07 03:44:09;;;;;;;3.20;2.90;;;27.80;99.90;;;;;;5011524;28;20022;-46
2022/07/07 03:46:35;;;;;;;3.42;3.03;;;27.80;99.90;;;;;;5011449;28;20037;-45
2022/07/07 03:49:01;;;;;;;4.93;3.20;;;27.80;99.90;;;;;;5011666;28;20125;-45
2022/07/07 03:51:27;;;;;;;3.80;2.90;;;27.80;99.90;;;;;;5011365;28;20068;-45
2022/07/07 03:53:52;;;;;;;4.05;3.28;;;27.80;99.90;;;;;;5011458;28;20026;-45
2022/07/07 03:56:18;;;;;;;4.72;2.83;;;27.70;99.90;;;;;;5011285;28;20022;-45
2022/07/07 03:58:44;;;;;;;5.70;3.15;;;27.70;99.90;;;;;;5011354;28;20025;-45
2022/07/07 04:01:10;;;;;;;5.72;3.35;;;27.70;99.90;;;;;;5012286;28;20046;-45
2022/07/07 04:03:37;;;;;;;4.57;3.17;;;27.80;99.90;;;;;;5011204;28;20037;-45
2022/07/07 04:06:06;;;;;;;4.00;2.88;;;27.80;99.90;;;;;;5012143;28;20025;-45
2022/07/07 04:08:32;;;;;;;4.32;3.00;;;27.70;99.90;;;;;;5015220;28;20113;-45
2022/07/07 04:10:58;;;;;;;5.18;3.33;;;27.70;99.90;;;;;;5015067;28;20109;-45
2022/07/07 04:13:24;;;;;;;4.60;2.75;;;27.70;99.90;;;;;;5015053;28;20084;-45
2022/07/07 04:15:50;;;;;;;4.22;3.35;;;27.70;99.90;;;;;;5014914;28;20026;-45
2022/07/07 04:18:16;;;;;;;4.55;2.80;;;27.70;99.90;;;;;;5015003;28;20030;-45
2022/07/07 04:20:42;;;;;;;5.43;3.10;;;27.70;99.90;;;;;;5014968;28;20101;-45
2022/07/07 04:23:08;;;;;;;5.25;3.30;;;27.70;99.90;;;;;;5014764;28;20479;-45
2022/07/07 04:25:33;;;;;;;4.15;3.17;;;27.70;99.90;;;;;;5014908;28;20030;-45
2022/07/07 04:27:59;;;;;;;3.58;2.70;;;27.70;99.90;;;;;;5014616;28;20044;-45
2022/07/07 04:30:25;;;;;;;3.45;2.92;;;27.70;99.90;;;;;;5014723;28;20113;-45
2022/07/07 04:32:51;;;;;;;3.65;2.65;;;27.70;99.90;;;;;;5014667;28;20034;-45
2022/07/07 04:35:16;;;;;;;4.50;2.90;;;27.70;99.90;;;;;;5014627;28;20026;-45
2022/07/07 04:37:42;;;;;;;3.85;2.70;;;27.70;99.90;;;;;;5014474;28;20026;-44
2022/07/07 04:40:08;;;;;;;5.13;3.00;;;27.70;99.90;;;;;;5014366;28;20081;-45
2022/07/07 04:42:34;;;;;;;3.50;2.55;;;27.70;99.90;;;;;;5014714;28;20029;-45
2022/07/07 04:45:00;;;;;;;3.67;2.63;;;27.70;99.90;;;;;;5014606;28;20030;-44
2022/07/07 04:47:26;;;;;;;3.10;2.80;;;27.70;99.90;;;;;;5014532;28;20153;-45
2022/07/07 04:49:52;;;;;;;4.53;2.83;;;27.70;99.90;;;;;;5014636;28;20033;-45
2022/07/07 04:52:18;;;;;;;5.32;3.20;;;27.70;99.90;;;;;;5014524;28;20026;-44
2022/07/07 04:54:44;;;;;;;4.90;2.95;;;27.70;99.90;;;;;;5014383;28;20044;-44
2022/07/07 04:57:11;;;;;;;5.30;3.35;;;27.70;99.90;;;;;;5014347;28;20029;-44
2022/07/07 04:59:37;;;;;;;4.18;2.58;;;27.70;99.90;;;;;;5014511;28;20036;-44
2022/07/07 05:02:03;;;;;;;4.65;3.10;;;27.70;99.90;;;;;;5014098;28;20058;-45
2022/07/07 05:04:29;;;;;;;4.68;3.45;;;27.70;99.90;;;;;;4996693;28;20228;-46
2022/07/07 05:06:54;;;;;;;4.15;2.78;;;27.70;99.90;;;;;;5014135;28;20124;-45
2022/07/07 05:09:20;;;;;;;4.07;3.17;;;27.70;99.90;;;;;;5014020;28;20040;-45
2022/07/07 05:11:46;;;;;;;5.03;2.95;;;27.70;99.90;;;;;;5014196;28;20025;-44
2022/07/07 05:14:12;;;;;;;4.10;3.03;;;27.70;99.90;;;;;;4996498;28;20479;-45
2022/07/07 05:16:37;;;;;;;3.20;2.90;;;27.70;99.90;;;;;;4996708;28;20056;-45
2022/07/07 05:19:03;;;;;;;5.13;2.78;;;27.70;99.90;;;;;;5013591;28;20029;-45
2022/07/07 05:21:29;;;;;;;3.42;2.47;;;27.70;99.90;;;;;;5014020;28;20467;-45
2022/07/07 05:23:54;;;;;;;3.85;2.60;;;27.70;99.90;;;;;;5013970;28;20364;-45
2022/07/07 05:26:20;;;;;;;3.83;2.85;;;27.70;99.90;;;;;;5013837;28;20387;-45
2022/07/07 05:28:46;;;;;;;6.20;3.03;;;27.70;99.90;;;;;;5013608;28;20088;-45
2022/07/07 05:31:14;;;;;;;4.30;2.72;;;27.70;99.90;;;;;;5013833;28;20025;-45
2022/07/07 05:33:43;;;;;;;4.45;2.60;;;27.70;99.90;;;;;;5013563;28;20042;-45
2022/07/07 05:36:09;;;;;;;3.70;2.60;;;27.70;99.90;;;;;;5013708;28;20022;-45
2022/07/07 05:38:35;;;;;;;4.60;2.80;;;27.70;99.90;;;;;;5013901;28;20022;-45
2022/07/07 05:41:01;;;;;;;6.63;3.22;;;27.70;99.90;;;;;;5013569;28;20045;-45
2022/07/07 05:43:27;;;;;;;4.25;3.00;;;27.70;99.90;;;;;;5013470;28;20038;-45
2022/07/07 05:45:53;;;;;;;4.68;2.60;;;27.70;99.90;;;;;;5013478;28;20030;-45
2022/07/07 05:48:19;;;;;;;6.75;3.10;;;27.80;99.90;;;;;;5013337;28;20072;-45
2022/07/07 05:50:45;;;;;;;4.60;2.70;;;27.70;99.90;;;;;;5013271;28;20062;-45
2022/07/07 05:53:11;;;;;;;4.38;3.13;;;27.70;99.90;;;;;;5013309;28;20030;-45
2022/07/07 05:55:37;;;;;;;6.90;3.63;;;27.80;99.90;;;;;;5013552;28;20030;-45
2022/07/07 05:58:03;;;;;;;4.28;3.00;;;27.80;99.90;;;;;;4995682;28;20029;-46
2022/07/07 06:00:29;;;;;;;4.00;2.90;;;27.80;99.90;;;;;;5013197;28;20541;-45
2022/07/07 06:02:55;;;;;;;4.97;3.17;;;27.80;99.90;;;;;;5013080;28;20034;-45
2022/07/07 06:05:22;;;;;;;4.40;2.72;;;27.80;99.90;;;;;;5013277;28;20022;-45
2022/07/07 06:07:48;;;;;;;4.40;3.40;;;27.80;99.90;;;;;;5012930;28;20141;-45
2022/07/07 06:10:14;;;;;;;5.03;2.90;;;27.80;99.90;;;;;;5012968;28;20108;-45
2022/07/07 06:12:41;;;;;;;3.80;2.88;;;27.80;99.90;;;;;;5013108;28;20030;-45
2022/07/07 06:15:07;;;;;;;4.60;3.08;;;27.80;99.90;;;;;;5013141;28;20034;-45
2022/07/07 06:17:33;;;;;;;7.68;3.88;;;27.80;99.90;;;;;;5012979;28;20068;-45
2022/07/07 06:19:59;;;;;;;5.13;3.53;;;27.80;99.90;;;;;;5012792;28;20026;-45
2022/07/07 06:22:28;;;;;;;4.65;3.05;;;27.80;99.90;;;;;;5012777;28;20463;-45
2022/07/07 06:24:54;;;;;;;4.38;3.25;;;27.80;99.90;;;;;;5012825;28;20479;-45
2022/07/07 06:27:20;;;;;;;5.35;3.30;;;27.80;99.90;;;;;;5012661;28;20041;-45
2022/07/07 06:29:46;;;;;;;3.63;2.90;;;27.80;99.90;;;;;;5011761;28;20038;-45
2022/07/07 06:32:14;;;;;;;5.32;3.10;;;27.90;99.90;;;;;;5012756;28;20148;-45
2022/07/07 06:34:40;;;;;;;3.60;2.67;;;27.90;99.90;;;;;;5011439;28;20022;-46
2022/07/07 06:37:05;;;;;;;6.05;2.97;;;27.90;99.90;;;;;;5012625;28;20028;-45
2022/07/07 06:39:31;;;;;;;4.75;2.95;;;27.90;99.90;;;;;;5012342;28;20025;-45
2022/07/07 06:41:57;;;;;;;5.63;3.92;;;27.90;99.90;;;;;;5012374;28;20042;-45
2022/07/07 06:44:23;;;;;;;5.72;3.88;;;27.90;99.90;;;;;;5012466;28;20133;-45
2022/07/07 06:46:48;;;;;;;6.47;3.67;;;27.90;99.90;;;;;;5012371;28;20105;-45
2022/07/07 06:49:14;;;;;;;8.05;3.75;;;27.90;99.90;;;;;;5012248;28;20046;-45
2022/07/07 06:51:40;;;;;;;4.50;3.90;;;27.90;99.90;;;;;;5012298;28;20054;-45
2022/07/07 06:54:06;;;;;;;5.28;3.75;;;27.90;99.90;;;;;;5012555;28;20026;-45
2022/07/07 06:56:31;;;;;;;5.28;3.80;;;27.90;99.90;;;;;;5012167;28;20022;-45
2022/07/07 06:58:57;;;;;;;5.22;3.20;;;27.90;99.90;;;;;;5011852;28;20087;-45
2022/07/07 07:01:23;;;;;;;5.30;3.05;;;27.90;99.90;;;;;;5011697;28;20168;-45
2022/07/07 07:03:49;;;;;;;6.45;4.03;;;27.90;99.90;;;;;;5012100;28;20030;-45
2022/07/07 07:06:14;;;;;;;6.75;4.15;;;27.90;99.90;;;;;;5011978;28;20532;-46
2022/07/07 07:08:40;;;;;;;5.63;3.90;;;27.90;99.90;;;;;;5012192;28;20034;-45
2022/07/07 07:11:06;;;;;;;4.20;3.33;;;27.90;99.90;;;;;;5011718;28;20022;-45
2022/07/07 07:13:32;;;;;;;5.85;3.60;;;28.00;99.90;;;;;;5011784;28;20058;-45
2022/07/07 07:15:58;;;;;;;6.43;3.95;;;28.00;99.90;;;;;;4994084;28;20022;-45
2022/07/07 07:18:24;;;;;;;7.22;3.53;;;28.00;99.90;;;;;;5011717;28;20068;-45
2022/07/07 07:20:50;;;;;;;5.85;4.07;;;28.00;99.90;;;;;;5011746;28;20022;-45
2022/07/07 07:23:16;;;;;;;6.47;3.88;;;28.00;99.90;;;;;;5011526;28;20036;-45
2022/07/07 07:25:41;;;;;;;6.03;3.85;;;28.00;99.90;;;;;;5011746;28;20037;-45
2022/07/07 07:28:08;;;;;;;5.78;3.70;;;28.00;99.90;;;;;;5011511;28;20040;-45
2022/07/07 07:30:34;;;;;;;6.28;4.22;;;28.00;99.90;;;;;;5011608;28;20018;-45
2022/07/07 07:33:00;;;;;;;4.22;3.42;;;28.00;99.90;;;;;;5011564;28;20485;-45
2022/07/07 07:35:26;;;;;;;7.13;4.18;;;28.10;99.90;;;;;;5011331;28;20026;-45
2022/07/07 07:37:51;;;;;;;5.85;3.58;;;28.00;99.90;;;;;;5011559;28;20021;-45
2022/07/07 07:40:17;;;;;;;6.03;4.13;;;28.10;99.90;;;;;;5011311;28;20026;-45
2022/07/07 07:42:43;;;;;;;9.38;4.97;;;28.10;99.90;;;;;;5011536;28;20081;-45
2022/07/07 07:45:09;;;;;;;8.02;4.32;;;28.10;99.90;;;;;;5011347;28;20014;-45
2022/07/07 07:47:38;;;;;;;8.95;4.38;;;28.10;99.90;;;;;;5011178;28;20049;-45
2022/07/07 07:50:04;;;;;;;6.55;4.20;;;28.10;99.90;;;;;;5011255;28;20025;-45
2022/07/07 07:52:30;;;;;;;11.20;5.28;;;28.10;99.90;;;;;;5011195;28;20065;-45
2022/07/07 07:54:56;;;;;;;13.90;5.55;;;28.10;99.90;;;;;;5011215;28;20042;-44
2022/07/07 07:57:22;;;;;;;8.15;4.50;;;28.10;99.90;;;;;;4993679;28;20333;-45
2022/07/07 07:59:48;;;;;;;8.30;4.60;;;28.10;99.90;;;;;;5011061;28;20372;-46
2022/07/07 08:02:14;;;;;;;8.30;5.05;;;28.20;99.90;;;;;;5011433;28;20037;-45
2022/07/07 08:04:40;;;;;;;7.00;5.17;;;28.20;99.90;;;;;;5011243;28;20045;-45
2022/07/07 08:07:06;;;;;;;8.02;5.03;;;28.20;99.90;;;;;;5011092;28;20329;-45
2022/07/07 08:09:31;;;;;;;8.02;4.43;;;28.20;99.90;;;;;;4993540;28;20037;-45
2022/07/07 08:11:57;;;;;;;7.10;4.57;;;28.20;99.90;;;;;;4993523;28;20014;-45
2022/07/07 08:14:23;;;;;;;7.68;4.95;;;28.20;99.90;;;;;;4993386;28;20029;-46
2022/07/07 08:16:49;;;;;;;6.97;4.18;;;28.20;99.90;;;;;;5011076;28;20053;-45
2022/07/07 08:19:19;;;;;;;7.68;4.97;;;28.20;99.90;;;;;;5011412;28;20041;-45
2022/07/07 08:21:48;;;;;;;8.65;4.45;;;28.20;99.90;;;;;;5011266;28;20026;-45
2022/07/07 08:24:14;;;;;;;8.23;5.00;;;28.20;99.90;;;;;;5011300;28;20026;-45
2022/07/07 08:26:41;;;;;;;8.00;4.45;;;28.20;99.90;;;;;;5011077;28;20026;-45
2022/07/07 08:29:07;;;;;;;7.80;5.03;;;28.20;99.90;;;;;;5011142;28;20095;-45
2022/07/07 08:31:33;;;;;;;9.90;5.13;;;28.20;99.90;;;;;;5011035;28;20026;-45
2022/07/07 08:33:58;;;;;;;12.65;5.53;;;28.20;99.90;;;;;;4993504;28;20040;-45
2022/07/07 08:36:24;;;;;;;14.27;6.10;;;28.20;99.90;;;;;;5009698;28;20117;-45
2022/07/07 08:38:50;;;;;;;5.45;4.75;;;28.20;99.90;;;;;;5010690;28;20060;-45
2022/07/07 08:41:16;;;;;;;11.68;6.72;;;28.30;99.90;;;;;;5010933;28;20443;-45
2022/07/07 08:43:42;;;;;;;6.75;4.63;;;28.30;99.90;;;;;;5010842;28;20042;-46
2022/07/07 08:46:09;;;;;;;8.55;5.32;;;28.30;99.90;;;;;;5010717;28;20076;-45
2022/07/07 08:48:35;;;;;;;8.93;5.72;;;28.30;99.90;;;;;;5010733;28;20566;-45
2022/07/07 08:51:04;;;;;;;6.40;4.88;;;28.30;99.90;;;;;;5010700;28;20034;-45
2022/07/07 08:53:33;;;;;;;7.47;4.90;;;28.30;99.90;;;;;;5012393;28;20022;-45
2022/07/07 08:56:03;;;;;;;9.88;5.30;;;28.30;99.90;;;;;;5014254;28;20014;-45
2022/07/07 08:58:31;;;;;;;9.25;4.88;;;28.30;99.90;;;;;;5014342;28;20051;-45
2022/07/07 09:00:56;;;;;;;7.82;5.57;;;28.30;99.90;;;;;;5013915;28;20388;-45
2022/07/07 09:03:22;;;;;;;6.43;4.75;;;28.30;99.90;;;;;;5014223;28;20037;-46
2022/07/07 09:05:49;;;;;;;10.48;5.20;;;28.40;99.90;;;;;;5014368;28;20127;-45
2022/07/07 09:08:18;;;;;;;8.03;5.23;;;28.30;99.90;;;;;;5013934;28;20044;-45
2022/07/07 09:10:44;;;;;;;8.77;5.40;;;28.40;99.90;;;;;;5014042;28;20116;-45
2022/07/07 09:13:26;;;;;;;8.13;5.60;;;28.40;99.90;;;;;;5014059;28;20109;-45
2022/07/07 09:15:57;;;;;;;10.30;5.40;;;28.40;99.90;;;;;;5014097;28;20022;-45
2022/07/07 09:18:32;;;;;;;7.70;5.07;;;28.40;99.90;;;;;;5013779;28;20073;-45
2022/07/07 09:20:58;;;;;;;8.27;5.28;;;28.40;99.90;;;;;;4996384;28;20032;-45
2022/07/07 09:23:24;;;;;;;7.88;5.20;;;28.40;99.90;;;;;;4996235;28;20033;-45
2022/07/07 09:25:50;;;;;;;8.13;5.40;;;28.40;99.90;;;;;;4996396;28;20113;-45
2022/07/07 09:28:16;;;;;;;6.85;5.63;;;28.40;99.90;;;;;;5013721;28;20038;-45
2022/07/07 09:30:45;;;;;;;8.95;5.43;;;28.50;99.90;;;;;;5013518;28;20018;-45
2022/07/07 09:33:15;;;;;;;7.30;5.25;;;28.50;99.90;;;;;;5013582;28;20554;-45
2022/07/07 09:38:30;;;;;;;8.17;5.77;;;28.40;99.90;;;;;;5013907;28;20589;-45
2022/07/07 09:41:03;;;;;;;6.28;4.68;;;28.50;99.90;;;;;;5013393;28;20036;-45
2022/07/07 09:43:36;;;;;;;7.57;4.90;;;28.50;99.90;;;;;;4995802;28;20030;-45
2022/07/07 09:46:11;;;;;;;9.13;5.20;;;28.50;99.90;;;;;;5013468;28;20450;-45
2022/07/07 09:48:38;;;;;;;8.30;5.28;;;28.50;99.90;;;;;;5013166;28;20455;-45
2022/07/07 09:51:12;;;;;;;7.53;5.65;;;28.50;99.90;;;;;;5013366;28;20032;-45
2022/07/07 09:54:04;;;;;;;7.80;5.63;;;28.50;99.90;;;;;;5013437;28;20034;-45
2022/07/07 09:56:31;;;;;;;8.52;5.35;;;28.50;99.90;;;;;;4982884;28;20033;-45
2022/07/07 09:58:59;;;;;;;6.70;5.13;;;28.50;99.90;;;;;;5012955;28;20081;-45
2022/07/07 10:01:28;;;;;;;7.47;5.22;;;28.50;99.90;;;;;;5012694;28;20124;-45
2022/07/07 10:04:03;;;;;;;6.25;5.05;;;28.50;99.90;;;;;;5012776;28;20076;-45
2022/07/07 10:06:32;;;;;;;8.55;5.57;;;28.50;99.90;;;;;;5012827;28;20486;-45
2022/07/07 10:09:04;;;;;;;9.02;5.80;;;28.60;99.90;;;;;;5012879;28;20049;-46
2022/07/07 10:11:39;;;;;;;9.27;5.30;;;28.60;99.90;;;;;;5012869;28;20022;-46
2022/07/07 10:14:17;;;;;;;6.55;5.57;;;28.60;99.90;;;;;;5012946;28;20137;-46
2022/07/07 10:16:45;;;;;;;7.28;5.18;;;28.60;99.90;;;;;;5012805;28;20098;-45
2022/07/07 10:19:14;;;;;;;7.70;5.63;;;28.60;99.90;;;;;;5012924;28;20030;-45
2022/07/07 10:21:41;;;;;;;8.75;5.97;;;28.60;99.90;;;;;;5012700;28;20535;-45
2022/07/07 10:24:08;;;;;;;7.55;5.80;;;28.60;99.90;;;;;;5012596;28;20033;-45
2022/07/07 10:26:43;;;;;;;9.15;5.95;;;28.60;99.90;;;;;;4995200;28;20040;-45
2022/07/07 10:29:10;;;;;;;8.02;5.65;;;28.70;99.90;;;;;;5012509;28;20038;-45
2022/07/07 10:31:37;;;;;;;8.57;5.50;;;28.70;99.90;;;;;;5012587;28;20527;-45
2022/07/07 10:34:11;;;;;;;8.73;6.03;;;28.70;99.90;;;;;;5012504;28;20105;-45
2022/07/07 10:36:49;;;;;;;6.30;5.22;;;28.70;99.90;;;;;;5012591;28;20507;-45
2022/07/07 10:39:16;;;;;;;6.18;5.18;;;28.70;99.90;;;;;;5012371;28;20033;-45
2022/07/07 10:42:01;;;;;;;7.28;5.78;;;28.70;99.90;;;;;;5012534;28;20022;-45
2022/07/07 10:44:27;;;;;;;6.65;5.28;;;28.70;99.90;;;;;;5012486;28;20073;-45
2022/07/07 10:47:21;;;;;;;7.65;5.57;;;28.70;99.90;;;;;;5012320;28;20018;-45
2022/07/07 10:49:53;;;;;;;7.68;5.47;;;28.70;99.90;;;;;;5011607;28;20038;-46
2022/07/07 10:52:21;;;;;;;10.27;5.32;;;28.70;99.90;;;;;;4994430;28;20383;-45
2022/07/07 10:55:04;;;;;;;7.57;5.63;;;28.70;99.90;;;;;;5012084;28;20023;-45
2022/07/07 10:57:48;;;;;;;6.28;5.35;;;28.80;99.90;;;;;;5012083;28;20025;-45
2022/07/07 11:00:19;;;;;;;9.82;5.90;;;28.70;99.90;;;;;;5011843;28;20394;-45
2022/07/07 11:03:07;;;;;;;8.30;5.55;;;28.80;99.90;;;;;;5011988;28;20056;-45
2022/07/07 11:05:33;;;;;;;6.93;5.70;;;28.80;99.90;;;;;;5011953;28;20022;-45
2022/07/07 11:07:59;;;;;;;6.90;5.32;;;28.80;99.90;;;;;;5011868;28;20038;-45
2022/07/07 11:10:40;;;;;;;6.72;5.05;;;28.80;99.90;;;;;;5012099;28;20454;-45
2022/07/07 11:13:20;;;;;;;5.95;5.15;;;28.80;99.90;;;;;;5011686;28;20025;-46
2022/07/07 11:15:50;;;;;;;7.93;5.70;;;28.80;99.90;;;;;;5011376;28;20588;-45
2022/07/07 11:18:18;;;;;;;7.47;5.50;;;28.80;99.90;;;;;;5012056;28;20036;-45
2022/07/07 11:20:53;;;;;;;5.95;5.32;;;28.80;99.90;;;;;;5011753;28;20022;-45
2022/07/07 11:23:19;;;;;;;7.80;5.65;;;28.80;99.90;;;;;;5011920;28;20057;-45
2022/07/07 11:25:45;;;;;;;7.55;5.63;;;28.80;99.90;;;;;;5011629;28;20022;-45
2022/07/07 11:28:11;;;;;;;6.80;4.82;;;28.80;99.90;;;;;;5011309;28;20476;-45
2022/07/07 11:30:41;;;;;;;9.63;6.22;;;28.80;99.90;;;;;;5011514;28;20034;-45
2022/07/07 11:33:08;;;;;;;6.55;5.25;;;28.80;99.90;;;;;;5011615;28;20080;-45
2022/07/07 11:35:40;;;;;;;8.65;5.60;;;28.80;99.90;;;;;;5011424;28;20173;-45
2022/07/07 11:38:11;;;;;;;6.20;5.50;;;28.80;99.90;;;;;;5011429;28;20034;-45
2022/07/07 11:40:42;;;;;;;9.30;5.43;;;28.80;99.90;;;;;;5011408;28;20387;-45
2022/07/07 11:43:20;;;;;;;7.13;5.80;;;28.80;99.90;;;;;;5011410;28;20026;-46
2022/07/07 11:45:46;;;;;;;7.30;5.40;;;28.80;99.90;;;;;;5011316;28;20425;-45
2022/07/07 11:48:12;;;;;;;6.22;4.90;;;28.90;99.90;;;;;;5011244;28;20066;-45
2022/07/07 11:50:38;;;;;;;6.60;4.90;;;28.90;99.90;;;;;;5011292;28;20383;-45
2022/07/07 11:53:07;;;;;;;6.68;5.20;;;28.80;99.90;;;;;;5011466;28;20040;-45
2022/07/07 11:55:33;;;;;;;11.00;5.97;;;28.90;99.90;;;;;;5011323;28;20464;-45
2022/07/07 11:58:01;;;;;;;8.48;5.60;;;28.90;99.90;;;;;;5011539;28;20080;-45
2022/07/07 12:00:29;;;;;;;6.80;5.95;;;28.90;99.90;;;;;;5011304;28;20480;-45
2022/07/07 12:03:00;;;;;;;6.85;5.60;;;28.90;99.90;;;;;;5011951;28;20064;-45
2022/07/07 12:05:32;;;;;;;6.40;5.80;;;28.90;99.90;;;;;;5011476;28;20025;-45
2022/07/07 12:08:02;;;;;;;9.82;5.82;;;28.90;99.90;;;;;;5011276;28;20120;-45
2022/07/07 12:11:01;;;;;;;8.60;5.75;;;28.90;99.90;;;;;;5011384;28;20033;-45
2022/07/07 12:13:28;;;;;;;7.50;5.20;;;28.90;99.90;;;;;;4994338;28;20495;-45
2022/07/07 12:15:54;;;;;;;7.22;5.25;;;28.90;99.90;;;;;;4993685;28;20077;-45
2022/07/07 12:18:32;;;;;;;7.07;5.40;;;28.90;99.90;;;;;;5011316;28;20030;-45
2022/07/07 12:21:02;;;;;;;6.18;4.57;;;28.90;99.90;;;;;;5011427;28;20037;-45
2022/07/07 12:23:29;;;;;;;9.00;5.43;;;28.90;99.90;;;;;;5011445;28;20079;-45
2022/07/07 12:26:15;;;;;;;7.87;5.70;;;29.00;99.90;;;;;;5011189;28;20423;-45
2022/07/07 12:28:42;;;;;;;6.22;4.95;;;29.00;99.90;;;;;;5013067;28;20291;-45
2022/07/07 12:31:14;;;;;;;8.88;5.30;;;29.00;99.90;;;;;;5014896;28;20033;-45
2022/07/07 12:33:40;;;;;;;6.68;5.13;;;29.00;99.90;;;;;;5014906;28;20053;-45
2022/07/07 12:36:21;;;;;;;8.48;5.13;;;29.00;99.90;;;;;;5014800;28;20022;-46
2022/07/07 12:38:53;;;;;;;7.88;4.75;;;29.00;99.90;;;;;;5014628;28;20419;-45
2022/07/07 12:41:24;;;;;;;7.20;4.75;;;29.00;99.90;;;;;;5014447;28;20148;-45
2022/07/07 12:43:50;;;;;;;5.85;4.57;;;29.00;99.90;;;;;;5014443;28;20022;-45
2022/07/07 12:46:16;;;;;;;7.05;5.18;;;29.00;99.90;;;;;;5014636;28;20048;-46
2022/07/07 12:48:51;;;;;;;7.57;4.82;;;29.00;99.90;;;;;;5014574;28;20041;-45
2022/07/07 12:51:25;;;;;;;8.82;4.88;;;29.00;99.90;;;;;;5014353;28;20029;-45
2022/07/07 12:53:51;;;;;;;6.85;5.47;;;29.00;99.90;;;;;;5014630;28;20042;-45